Time;durP1;ratioP1;P1;durP2;ratioP2;P2;SDS_P1;SDS_P2;PMS_P1;PMS_P2;Temp;Humidity;BMP_temperature;BMP_pressure;BME280_temperature;BME280_humidity;BME280_pressure;Samples;Min_cycle;Max_cycle;Signal;HPM_P1;HPM_P2
2022/04/30 04:00:54;;;;;;;6.37;4.27;;;5.60;96.30;;;;;;5755202;23;20485;-83
2022/04/30 04:03:20;;;;;;;7.10;4.47;;;5.60;96.30;;;;;;4997812;28;20441;-79
2022/04/30 04:05:48;;;;;;;6.67;4.37;;;5.40;96.30;;;;;;4990269;28;20422;-73
2022/04/30 04:08:15;;;;;;;9.00;4.50;;;5.40;96.30;;;;;;4976181;28;20448;-74
2022/04/30 04:10:41;;;;;;;5.43;4.07;;;5.40;96.30;;;;;;4976652;28;20425;-72
2022/04/30 04:18:35;;;;;;;8.77;5.20;;;5.40;96.30;;;;;;4976649;28;20408;-73
2022/04/30 04:26:22;;;;;;;6.77;5.20;;;;;;;;;;4976618;28;20493;-72
2022/04/30 04:28:48;;;;;;;6.80;5.17;;;5.60;96.30;;;;;;4978234;28;20426;-72
2022/04/30 05:59:52;;;;;;;9.17;5.47;;;;;;;;;;4973368;28;21074;-76
2022/04/30 06:17:34;;;;;;;9.20;5.87;;;;;;;;;;4934702;28;20478;-71
2022/04/30 06:19:59;;;;;;;8.57;5.77;;;9.90;96.30;;;;;;4935596;29;20447;-71
2022/04/30 06:22:25;;;;;;;10.17;5.57;;;9.90;96.30;;;;;;4917968;29;20551;-72
2022/04/30 06:24:51;;;;;;;7.77;5.43;;;9.90;96.30;;;;;;4916852;29;20176;-72
2022/04/30 06:27:17;;;;;;;9.00;5.83;;;9.60;96.30;;;;;;4916444;29;20176;-74
2022/04/30 06:29:42;;;;;;;10.73;6.43;;;;;;;;;;4916233;29;20190;-72
2022/04/30 06:32:09;;;;;;;9.83;5.83;;;;;;;;;;4916706;29;20924;-72
2022/04/30 06:34:35;;;;;;;10.20;6.50;;;;;;;;;;4915213;29;20267;-71
2022/04/30 06:37:01;;;;;;;7.67;6.13;;;;;;;;;;4916469;29;20815;-72
2022/04/30 06:39:26;;;;;;;8.50;5.83;;;9.70;96.30;;;;;;4915746;29;20508;-72
2022/04/30 06:44:27;;;;;;;11.57;6.30;;;10.10;96.30;;;;;;1206668;23;20531;-72
2022/04/30 06:46:54;;;;;;;10.00;6.50;;;;;;;;;;4973593;28;20441;-73
2022/04/30 06:49:21;;;;;;;10.20;5.93;;;10.40;96.30;;;;;;4973316;28;20225;-71
2022/04/30 07:07:16;;;;;;;8.37;4.80;;;;;;;;;;4953386;28;20478;-72
2022/04/30 07:09:42;;;;;;;6.40;4.80;;;10.90;96.30;;;;;;4954071;29;20406;-72
2022/04/30 07:12:09;;;;;;;10.80;5.80;;;;;;;;;;4954931;29;20285;-71
2022/04/30 07:14:36;;;;;;;7.50;6.70;;;11.40;96.30;;;;;;4951152;29;20193;-72
2022/04/30 07:17:13;;;;;;;6.33;5.70;;;11.60;96.30;;;;;;4953314;28;20453;-75
2022/04/30 07:19:39;;;;;;;8.20;6.33;;;11.50;96.30;;;;;;4917226;29;20427;-72
2022/04/30 07:55:46;;;;;;;8.27;5.37;;;;;;;;;;5735149;23;20949;-72
2022/04/30 07:58:12;;;;;;;7.60;4.83;;;;;;;;;;4976462;28;20425;-76
2022/04/30 08:00:37;;;;;;;9.23;4.90;;;13.60;96.30;;;;;;4976850;28;20202;-73
2022/04/30 08:03:03;;;;;;;8.77;4.97;;;13.60;96.30;;;;;;4976873;28;20264;-73
2022/04/30 08:05:29;;;;;;;10.20;5.27;;;13.90;96.30;;;;;;4976586;28;20201;-74
2022/04/30 08:07:55;;;;;;;10.60;5.87;;;14.20;96.30;;;;;;4976283;28;20854;-72
2022/04/30 08:10:21;;;;;;;14.77;5.20;;;14.40;96.30;;;;;;4979428;28;20186;-73
2022/04/30 08:12:47;;;;;;;11.30;5.37;;;14.80;96.30;;;;;;4995573;28;20191;-74
2022/04/30 08:15:12;;;;;;;9.30;5.43;;;14.80;96.30;;;;;;4975520;28;20520;-74
2022/04/30 08:17:38;;;;;;;6.90;5.40;;;15.10;96.30;;;;;;4977036;28;20197;-73
2022/04/30 08:20:06;;;;;;;8.10;5.27;;;15.30;96.30;;;;;;4981909;28;20177;-72
2022/04/30 08:27:43;;;;;;;10.63;5.87;;;;;;;;;;5169644;23;20507;-77
2022/04/30 08:30:10;;;;;;;6.50;5.40;;;15.40;95.00;;;;;;4977243;28;20977;-78
2022/04/30 08:32:36;;;;;;;8.03;6.23;;;15.00;96.30;;;;;;4956979;29;20206;-76
2022/04/30 08:35:02;;;;;;;8.10;5.40;;;15.30;96.30;;;;;;4956685;29;20925;-77
2022/04/30 08:37:30;;;;;;;7.23;4.83;;;15.50;96.30;;;;;;4956372;29;20419;-76
2022/04/30 08:39:56;;;;;;;10.57;5.60;;;15.80;96.30;;;;;;4939261;29;20207;-77
2022/04/30 08:42:23;;;;;;;8.43;5.67;;;15.90;95.70;;;;;;4938822;29;21046;-76
2022/04/30 08:44:49;;;;;;;8.37;5.70;;;15.90;95.10;;;;;;4957207;29;20274;-77
2022/04/30 08:47:15;;;;;;;10.10;5.60;;;15.80;96.30;;;;;;4957929;28;20418;-78
2022/04/30 08:49:42;;;;;;;8.50;6.60;;;16.00;96.30;;;;;;4940695;29;20431;-77
2022/04/30 08:52:08;;;;;;;7.87;5.73;;;16.20;96.30;;;;;;4957655;28;20199;-77
2022/04/30 08:54:34;;;;;;;7.43;6.17;;;16.40;96.30;;;;;;4955374;29;20456;-76
2022/04/30 08:56:59;;;;;;;7.40;6.30;;;16.80;96.30;;;;;;4957585;29;20995;-78
2022/04/30 08:59:25;;;;;;;8.90;6.27;;;17.20;96.30;;;;;;4956257;29;20175;-78
2022/04/30 09:01:52;;;;;;;8.40;6.47;;;17.30;96.30;;;;;;4955659;28;20203;-78
2022/04/30 09:04:19;;;;;;;9.13;6.90;;;17.70;96.30;;;;;;4956268;29;20187;-76
2022/04/30 09:06:53;;;;;;;12.20;6.60;;;18.00;92.60;;;;;;4956332;29;20411;-77
2022/04/30 09:09:27;;;;;;;10.30;7.30;;;17.70;93.20;;;;;;4956181;29;20423;-77
2022/04/30 09:11:56;;;;;;;7.60;6.40;;;17.80;95.50;;;;;;4970760;28;20458;-77
2022/04/30 09:14:28;;;;;;;9.57;6.70;;;18.00;92.70;;;;;;4978438;28;20914;-77
2022/04/30 09:17:06;;;;;;;7.97;6.93;;;17.70;93.80;;;;;;4973110;28;20762;-77
2022/04/30 09:19:45;;;;;;;7.63;6.37;;;17.50;93.00;;;;;;4970061;28;20414;-77
2022/04/30 09:22:10;;;;;;;13.17;6.50;;;;;;;;;;4972949;28;20493;-77
2022/04/30 09:24:48;;;;;;;11.30;7.10;;;17.20;94.00;;;;;;4972932;28;20437;-76
2022/04/30 09:27:15;;;;;;;12.07;7.50;;;16.80;93.70;;;;;;4955515;28;20959;-77
2022/04/30 09:29:41;;;;;;;9.43;7.60;;;16.90;96.30;;;;;;4972898;28;20440;-75
2022/04/30 09:32:07;;;;;;;10.97;8.07;;;16.90;96.30;;;;;;4955328;28;20957;-76
2022/04/30 09:40:23;;;;;;;11.10;8.00;;;17.40;92.50;;;;;;4969937;28;20430;-76
2022/04/30 09:42:48;;;;;;;14.83;7.80;;;17.20;95.00;;;;;;4974609;28;20909;-78
2022/04/30 09:45:27;;;;;;;13.57;7.87;;;17.40;93.20;;;;;;4974556;28;20500;-77
2022/04/30 09:47:54;;;;;;;13.77;8.13;;;18.00;93.50;;;;;;4974222;28;20553;-77
2022/04/30 09:55:59;;;;;;;11.73;8.77;;;17.70;92.00;;;;;;4974746;28;20484;-77
2022/04/30 09:58:26;;;;;;;9.03;7.37;;;17.60;90.40;;;;;;4974219;28;20422;-75
2022/04/30 10:00:54;;;;;;;16.40;8.43;;;;;;;;;;4974407;28;20422;-75
2022/04/30 10:03:23;;;;;;;13.03;8.30;;;18.00;89.30;;;;;;4973950;28;20418;-76
2022/04/30 10:05:50;;;;;;;12.93;8.93;;;;;;;;;;4974532;28;20406;-76
2022/04/30 10:08:16;;;;;;;9.30;8.20;;;;;;;;;;4974287;28;20504;-76
2022/04/30 10:10:50;;;;;;;12.27;7.97;;;18.60;88.30;;;;;;4974299;28;20465;-76
2022/04/30 10:13:24;;;;;;;10.20;7.47;;;17.60;88.00;;;;;;4974507;28;20417;-76
2022/04/30 10:15:52;;;;;;;13.27;7.90;;;18.10;92.20;;;;;;4974320;28;20414;-76
2022/04/30 10:18:20;;;;;;;13.87;9.27;;;;;;;;;;4973972;28;20953;-76
2022/04/30 10:20:56;;;;;;;12.23;8.80;;;;;;;;;;4974075;28;20450;-76
2022/04/30 10:23:22;;;;;;;9.07;8.17;;;;;;;;;;4975194;28;20496;-75
2022/04/30 10:25:48;;;;;;;13.10;8.47;;;17.50;94.30;;;;;;4975279;28;20434;-77
2022/04/30 10:28:23;;;;;;;12.77;9.60;;;17.00;93.00;;;;;;4958497;28;20193;-76
2022/04/30 10:30:58;;;;;;;11.37;8.43;;;;;;;;;;4977203;28;20431;-76
2022/04/30 10:33:25;;;;;;;11.40;8.70;;;16.40;94.70;;;;;;4977238;28;20405;-76
2022/04/30 10:35:51;;;;;;;9.63;7.93;;;;;;;;;;4977102;28;20402;-76
2022/04/30 10:38:18;;;;;;;9.90;8.83;;;16.50;96.30;;;;;;4976738;28;20513;-77
2022/04/30 10:40:51;;;;;;;14.90;9.23;;;16.70;96.30;;;;;;4976551;28;20221;-76
2022/04/30 10:43:26;;;;;;;12.23;9.93;;;17.10;95.40;;;;;;4977036;28;20525;-76
2022/04/30 10:45:53;;;;;;;10.40;8.90;;;17.10;95.80;;;;;;4977596;28;20421;-75
2022/04/30 10:48:19;;;;;;;16.27;9.90;;;;;;;;;;4959238;28;20436;-76
2022/04/30 10:50:51;;;;;;;11.63;9.67;;;;;;;;;;4975797;28;20430;-76
2022/04/30 10:53:19;;;;;;;13.40;8.80;;;;;;;;;;4977143;28;20913;-76
2022/04/30 10:55:45;;;;;;;13.20;9.47;;;;;;;;;;4976152;28;20549;-76
2022/04/30 10:58:11;;;;;;;10.47;8.97;;;16.70;96.30;;;;;;4976040;28;20902;-76
2022/04/30 11:00:36;;;;;;;14.23;10.03;;;16.80;96.30;;;;;;4976686;28;20453;-76
2022/04/30 11:03:10;;;;;;;34.43;11.50;;;17.60;96.30;;;;;;4976902;28;20221;-76
2022/04/30 11:05:35;;;;;;;12.07;9.60;;;18.00;96.30;;;;;;4958794;28;20178;-76
2022/04/30 11:08:03;;;;;;;13.17;10.03;;;18.20;96.30;;;;;;4976608;28;20484;-76
2022/04/30 11:10:30;;;;;;;20.30;10.13;;;18.30;96.30;;;;;;4976937;28;20177;-76
2022/04/30 11:13:22;;;;;;;9.80;8.90;;;19.00;93.60;;;;;;4977276;28;20484;-76
2022/04/30 11:15:48;;;;;;;10.33;9.23;;;19.30;93.40;;;;;;4978277;28;20418;-76
2022/04/30 11:18:18;;;;;;;15.40;8.47;;;19.10;87.00;;;;;;4980998;28;20437;-77
2022/04/30 11:20:44;;;;;;;14.50;8.90;;;;;;;;;;4962394;28;20452;-76
2022/04/30 11:23:21;;;;;;;18.53;9.80;;;19.20;88.60;;;;;;4980283;28;20832;-76
2022/04/30 11:25:47;;;;;;;10.03;8.03;;;;;;;;;;4980885;28;20182;-77
2022/04/30 11:28:12;;;;;;;11.53;9.93;;;;;;;;;;4962797;28;20957;-76
2022/04/30 11:30:43;;;;;;;13.53;9.63;;;18.50;90.30;;;;;;4980889;28;20194;-76
2022/04/30 11:33:09;;;;;;;11.37;8.40;;;18.90;91.30;;;;;;4980046;28;20182;-76
2022/04/30 11:35:35;;;;;;;9.40;8.50;;;;;;;;;;4978567;28;20464;-74
2022/04/30 11:38:01;;;;;;;15.43;9.10;;;18.40;90.20;;;;;;4978686;28;20437;-74
2022/04/30 11:40:27;;;;;;;13.20;9.23;;;;;;;;;;4978418;28;20190;-75
2022/04/30 11:42:57;;;;;;;14.57;9.67;;;;;;;;;;4979694;28;20522;-75
2022/04/30 11:45:29;;;;;;;12.60;10.17;;;18.50;89.70;;;;;;4979509;28;20587;-74
2022/04/30 11:47:58;;;;;;;9.83;8.80;;;18.10;88.20;;;;;;4979644;28;20414;-74
2022/04/30 11:50:25;;;;;;;10.80;9.67;;;17.60;89.50;;;;;;4978017;28;20437;-76
2022/04/30 11:52:51;;;;;;;12.20;9.20;;;17.70;91.30;;;;;;4981287;28;20460;-76
2022/04/30 11:55:17;;;;;;;10.10;9.10;;;17.80;88.40;;;;;;4980919;28;20500;-76
2022/04/30 11:57:44;;;;;;;12.77;10.63;;;;;;;;;;4976999;28;20599;-77
2022/04/30 12:00:10;;;;;;;9.97;8.97;;;;;;;;;;4976600;28;20902;-78
2022/04/30 12:02:39;;;;;;;12.30;9.23;;;17.80;91.00;;;;;;4958843;28;20476;-77
2022/04/30 12:05:06;;;;;;;13.40;9.63;;;;;;;;;;4976452;28;20417;-76
2022/04/30 12:07:39;;;;;;;12.90;9.57;;;17.10;93.70;;;;;;4976017;28;20406;-77
2022/04/30 12:15:18;;;;;;;10.00;7.63;;;;;;;;;;5167620;23;21017;-75
2022/04/30 12:17:44;;;;;;;11.23;7.60;;;;;;;;;;4975798;28;20424;-75
2022/04/30 12:25:45;;;;;;;12.27;9.30;;;19.30;85.80;;;;;;4956379;28;20425;-74
2022/04/30 12:28:11;;;;;;;10.90;8.87;;;19.20;82.80;;;;;;4939101;29;20525;-74
2022/04/30 12:30:48;;;;;;;9.80;8.77;;;18.20;85.20;;;;;;4956529;29;20555;-75
2022/04/30 12:33:13;;;;;;;10.23;8.40;;;18.70;87.40;;;;;;4956507;29;20422;-74
2022/04/30 12:35:40;;;;;;;11.50;9.77;;;18.50;87.30;;;;;;4939256;29;20469;-73
2022/04/30 12:38:13;;;;;;;10.67;9.20;;;19.00;87.00;;;;;;4956274;29;20194;-75
2022/04/30 12:40:47;;;;;;;12.83;9.13;;;19.20;86.10;;;;;;4956235;29;20445;-74
2022/04/30 12:43:13;;;;;;;13.53;8.70;;;;;;;;;;4956342;29;20462;-75
2022/04/30 12:45:43;;;;;;;9.80;8.57;;;19.30;88.40;;;;;;4956263;29;20418;-74
2022/04/30 12:48:09;;;;;;;10.30;7.87;;;19.60;86.60;;;;;;4956042;28;20497;-75
2022/04/30 12:50:36;;;;;;;13.67;9.00;;;;;;;;;;4956141;29;20462;-75
2022/04/30 12:53:02;;;;;;;17.57;8.50;;;;;;;;;;4956217;28;20454;-74
2022/04/30 12:55:30;;;;;;;14.20;7.37;;;;;;;;;;4956042;28;20433;-75
2022/04/30 12:57:56;;;;;;;10.83;8.70;;;;;;;;;;4956015;29;20411;-75
2022/04/30 13:00:22;;;;;;;9.13;7.97;;;;;;;;;;4938806;29;21108;-75
2022/04/30 13:02:48;;;;;;;10.63;8.73;;;;;;;;;;4956035;29;20466;-76
2022/04/30 13:05:14;;;;;;;9.47;7.97;;;;;;;;;;4955930;28;20414;-75
2022/04/30 13:07:42;;;;;;;10.73;8.43;;;17.30;89.30;;;;;;4955717;29;20190;-75
2022/04/30 13:15:38;;;;;;;12.00;8.33;;;17.80;87.30;;;;;;4961603;28;20465;-76
2022/04/30 13:18:04;;;;;;;11.20;8.43;;;18.20;88.10;;;;;;4939751;29;20929;-75
2022/04/30 13:20:30;;;;;;;11.97;8.13;;;18.80;89.60;;;;;;4955276;28;20421;-75
2022/04/30 13:22:59;;;;;;;11.50;8.70;;;;;;;;;;4955544;28;20736;-75
2022/04/30 13:25:26;;;;;;;8.30;7.50;;;18.60;83.60;;;;;;4955638;29;20537;-74
2022/04/30 13:27:52;;;;;;;9.03;8.03;;;;;;;;;;4937735;29;20422;-75
2022/04/30 13:30:18;;;;;;;12.07;8.30;;;;;;;;;;4954308;29;20422;-74
2022/04/30 13:32:45;;;;;;;7.80;7.00;;;;;;;;;;4947530;28;20194;-76
2022/04/30 13:35:11;;;;;;;10.20;7.37;;;;;;;;;;4937680;28;20462;-77
2022/04/30 13:37:40;;;;;;;8.40;6.87;;;;;;;;;;4937065;29;20447;-76
2022/04/30 13:40:10;;;;;;;14.23;7.10;;;18.10;84.90;;;;;;4939650;29;20475;-75
2022/04/30 13:42:35;;;;;;;10.00;6.70;;;17.80;89.00;;;;;;4953071;29;20553;-76
2022/04/30 13:45:02;;;;;;;7.20;6.47;;;17.50;89.20;;;;;;4958525;29;20855;-76
2022/04/30 13:47:28;;;;;;;8.37;6.90;;;17.60;91.10;;;;;;4954530;29;20647;-77
2022/04/30 13:49:54;;;;;;;9.43;7.57;;;17.80;89.40;;;;;;4955237;29;20414;-77
2022/04/30 13:52:21;;;;;;;8.50;7.53;;;;;;;;;;4955228;28;20481;-75
2022/04/30 13:54:47;;;;;;;10.13;6.97;;;18.20;87.40;;;;;;4956104;29;20178;-77
2022/04/30 13:57:13;;;;;;;10.87;7.00;;;18.30;87.90;;;;;;4938161;29;20422;-77
2022/04/30 13:59:39;;;;;;;8.60;6.87;;;18.20;86.30;;;;;;4951298;28;20423;-75
2022/04/30 14:02:04;;;;;;;13.93;6.53;;;17.80;84.10;;;;;;4954788;29;20241;-77
2022/04/30 14:04:33;;;;;;;8.57;6.53;;;17.80;82.50;;;;;;4954942;29;20582;-75
2022/04/30 14:06:59;;;;;;;8.30;6.90;;;17.50;83.00;;;;;;4954954;29;20171;-75
2022/04/30 14:09:25;;;;;;;10.47;6.40;;;17.10;82.70;;;;;;4969590;28;20483;-75
2022/04/30 14:11:52;;;;;;;11.17;6.63;;;;;;;;;;4940631;29;20325;-78
2022/04/30 14:18:15;;;;;;;8.83;6.37;;;16.50;83.70;;;;;;4964544;28;20424;-77
2022/04/30 14:19:49;;;;;;;7.37;6.17;;;16.40;84.60;;;;;;4973410;28;20476;-75
2022/04/30 14:22:15;;;;;;;10.40;6.80;;;16.40;85.50;;;;;;4946623;28;20468;-77
2022/04/30 14:24:41;;;;;;;9.20;6.10;;;;;;;;;;4949095;28;20419;-77
2022/04/30 14:27:07;;;;;;;10.30;6.27;;;;;;;;;;4974152;28;20506;-78
2022/04/30 14:29:32;;;;;;;6.53;5.93;;;;;;;;;;4973582;28;20205;-78
2022/04/30 14:31:58;;;;;;;7.77;6.10;;;;;;;;;;4970198;28;20202;-77
2022/04/30 14:34:24;;;;;;;19.53;6.50;;;;;;;;;;4952997;28;20720;-76
2022/04/30 14:36:50;;;;;;;13.90;7.57;;;;;;;;;;4957585;28;20422;-77
2022/04/30 14:39:16;;;;;;;9.33;7.40;;;;;;;;;;4952694;29;20201;-77
2022/04/30 14:41:44;;;;;;;9.50;7.70;;;;;;;;;;4952629;29;20202;-77
2022/04/30 14:44:10;;;;;;;8.47;6.77;;;;;;;;;;4935522;29;20263;-76
2022/04/30 14:46:36;;;;;;;10.73;7.23;;;16.40;87.70;;;;;;4953858;29;20427;-77
2022/04/30 14:49:02;;;;;;;9.13;6.30;;;;;;;;;;4951737;28;20411;-77
2022/04/30 14:51:28;;;;;;;7.50;6.13;;;16.20;87.10;;;;;;4954203;28;20285;-77
2022/04/30 14:53:54;;;;;;;9.23;6.23;;;16.60;85.50;;;;;;4936543;29;20518;-76
2022/04/30 14:56:22;;;;;;;6.93;5.83;;;;;;;;;;4968917;28;20288;-78
2022/04/30 14:58:48;;;;;;;10.80;6.97;;;17.20;83.90;;;;;;4973352;28;20564;-76
2022/04/30 15:01:13;;;;;;;11.90;6.67;;;17.30;83.90;;;;;;4973321;28;20445;-77
2022/04/30 15:03:39;;;;;;;7.63;5.87;;;17.20;83.70;;;;;;4973498;28;20210;-78
2022/04/30 15:06:04;;;;;;;7.03;5.10;;;17.40;81.60;;;;;;4972440;28;20181;-76
2022/04/30 15:08:30;;;;;;;10.27;5.90;;;;;;;;;;4953931;29;20623;-77
2022/04/30 15:10:56;;;;;;;5.90;5.20;;;17.50;81.90;;;;;;4954251;29;20191;-77
2022/04/30 15:13:21;;;;;;;7.00;5.30;;;17.50;81.90;;;;;;4954236;29;20175;-77
2022/04/30 15:15:47;;;;;;;7.37;6.10;;;17.60;82.50;;;;;;4954736;29;20175;-76
2022/04/30 15:18:12;;;;;;;7.80;5.23;;;17.60;80.80;;;;;;4953438;29;20262;-77
2022/04/30 15:20:38;;;;;;;10.90;5.80;;;17.50;85.20;;;;;;4954128;28;20206;-77
2022/04/30 15:23:03;;;;;;;10.80;7.43;;;17.20;84.30;;;;;;4953820;29;20281;-78
2022/04/30 15:25:29;;;;;;;12.93;6.43;;;16.90;86.60;;;;;;4936804;29;20624;-77
2022/04/30 15:27:54;;;;;;;9.50;6.17;;;16.90;87.30;;;;;;4954171;29;20187;-77
2022/04/30 15:30:20;;;;;;;14.27;6.23;;;16.80;88.60;;;;;;4954512;29;20530;-78
2022/04/30 15:32:47;;;;;;;8.47;6.23;;;16.50;86.70;;;;;;4954105;29;20179;-77
2022/04/30 15:35:13;;;;;;;9.33;5.67;;;16.20;85.80;;;;;;4954443;28;20182;-78
2022/04/30 15:37:40;;;;;;;7.50;5.60;;;16.10;86.90;;;;;;4954334;28;20421;-77
2022/04/30 15:40:06;;;;;;;8.67;5.97;;;16.10;87.70;;;;;;4937064;29;20419;-77
2022/04/30 15:42:32;;;;;;;9.30;6.27;;;16.00;90.00;;;;;;4937490;29;21073;-77
2022/04/30 15:44:57;;;;;;;9.23;5.60;;;15.90;89.60;;;;;;4954175;29;20450;-77
2022/04/30 15:52:51;;;;;;;6.83;6.13;;;15.90;91.50;;;;;;4954924;29;20929;-77
2022/04/30 15:55:16;;;;;;;8.00;5.60;;;15.80;90.00;;;;;;4954569;29;20426;-77
2022/04/30 15:57:42;;;;;;;8.60;7.23;;;15.90;88.90;;;;;;4936483;29;20549;-76
2022/04/30 16:00:08;;;;;;;9.60;5.83;;;15.70;87.50;;;;;;4952752;28;20214;-77
2022/04/30 16:02:33;;;;;;;7.33;5.80;;;15.70;89.10;;;;;;4976144;28;20213;-78
2022/04/30 16:04:59;;;;;;;8.07;5.80;;;15.70;90.10;;;;;;4975289;28;20429;-77
2022/04/30 16:07:25;;;;;;;10.50;5.63;;;15.70;90.30;;;;;;4975809;28;20232;-77
2022/04/30 16:09:51;;;;;;;10.77;5.73;;;15.60;89.90;;;;;;4963396;28;20291;-75
2022/04/30 16:12:16;;;;;;;8.83;5.93;;;15.60;88.70;;;;;;4956692;28;20233;-75
2022/04/30 16:14:42;;;;;;;6.30;5.67;;;15.80;88.30;;;;;;4965185;28;20484;-77
2022/04/30 16:17:07;;;;;;;6.57;4.83;;;16.00;87.00;;;;;;4970223;28;20576;-76
2022/04/30 16:19:33;;;;;;;11.43;8.57;;;16.10;83.10;;;;;;4961837;28;20175;-76
2022/04/30 16:21:59;;;;;;;15.90;14.40;;;16.20;83.70;;;;;;4956952;29;20751;-76
2022/04/30 16:24:25;;;;;;;17.00;15.00;;;16.00;86.00;;;;;;4941756;28;20175;-77
2022/04/30 16:26:52;;;;;;;12.23;6.90;;;15.80;88.70;;;;;;4960781;28;20432;-74
2022/04/30 16:29:19;;;;;;;8.47;6.63;;;15.50;90.60;;;;;;4943783;28;20193;-74
2022/04/30 16:31:45;;;;;;;7.47;6.07;;;15.30;92.10;;;;;;4964279;28;20442;-74
2022/04/30 16:34:11;;;;;;;6.80;6.10;;;15.10;93.30;;;;;;4969539;28;20530;-74
2022/04/30 16:36:38;;;;;;;8.87;6.30;;;15.00;92.40;;;;;;4967155;28;20799;-75
2022/04/30 16:39:04;;;;;;;9.10;6.20;;;15.00;91.80;;;;;;4956537;28;20178;-76
2022/04/30 16:41:30;;;;;;;6.40;5.77;;;15.00;92.90;;;;;;4975445;28;20825;-76
2022/04/30 16:43:55;;;;;;;8.10;6.17;;;14.90;91.80;;;;;;4965282;28;20410;-76
2022/04/30 16:46:22;;;;;;;7.80;6.50;;;15.00;93.10;;;;;;4966197;28;20856;-73
2022/04/30 16:48:48;;;;;;;20.37;9.73;;;14.90;92.40;;;;;;4955516;29;20171;-75
2022/04/30 16:53:57;;;;;;;15.07;6.53;;;14.80;92.20;;;;;;4956323;28;20205;-74
2022/04/30 16:59:07;;;;;;;10.73;6.93;;;14.70;94.60;;;;;;4956429;29;20169;-75
2022/04/30 17:01:34;;;;;;;9.73;6.77;;;14.50;94.00;;;;;;4955481;28;20553;-76
2022/04/30 17:04:00;;;;;;;7.03;6.30;;;14.40;93.20;;;;;;4968966;28;20178;-78
2022/04/30 17:06:29;;;;;;;9.23;6.47;;;14.40;95.80;;;;;;4962402;28;20430;-78
2022/04/30 17:08:59;;;;;;;18.77;6.30;;;14.30;96.30;;;;;;4978982;28;20456;-78
2022/04/30 17:11:24;;;;;;;12.03;6.43;;;14.30;96.10;;;;;;4938606;29;20533;-79
2022/04/30 17:13:50;;;;;;;10.07;8.00;;;14.20;96.30;;;;;;4936459;29;20990;-76
2022/04/30 17:16:15;;;;;;;13.47;10.30;;;14.10;95.80;;;;;;4956690;28;20190;-75
2022/04/30 17:18:41;;;;;;;18.57;16.60;;;14.20;96.00;;;;;;4971994;28;20583;-76
2022/04/30 17:21:06;;;;;;;21.93;9.80;;;14.10;96.30;;;;;;4975452;28;20233;-79
2022/04/30 17:23:32;;;;;;;8.73;7.83;;;14.10;96.30;;;;;;4975392;28;20293;-77
2022/04/30 17:26:00;;;;;;;12.77;8.10;;;13.90;96.30;;;;;;4975042;28;20167;-78
2022/04/30 17:28:26;;;;;;;7.93;7.03;;;13.70;96.30;;;;;;4958437;28;20182;-79
2022/04/30 17:39:05;;;;;;;13.43;8.23;;;13.10;96.30;;;;;;4965153;28;20836;-78
2022/04/30 17:41:31;;;;;;;9.47;6.63;;;13.00;96.30;;;;;;4957371;28;20472;-78
2022/04/30 17:43:56;;;;;;;9.57;6.83;;;12.90;96.30;;;;;;4938647;29;20989;-77
2022/04/30 17:46:22;;;;;;;10.83;7.70;;;12.70;96.30;;;;;;4938557;29;20414;-77
2022/04/30 17:48:47;;;;;;;10.03;8.33;;;12.40;96.30;;;;;;4955764;29;20262;-79
2022/04/30 17:51:14;;;;;;;13.97;7.90;;;12.30;96.30;;;;;;4955377;29;20214;-78
2022/04/30 17:53:39;;;;;;;15.13;9.23;;;12.10;96.30;;;;;;4955788;28;20167;-78
2022/04/30 17:56:05;;;;;;;16.30;9.90;;;11.80;96.30;;;;;;4955657;28;20421;-78
2022/04/30 17:58:30;;;;;;;14.13;10.30;;;11.60;96.30;;;;;;4955187;28;20647;-77
2022/04/30 18:00:56;;;;;;;16.80;10.60;;;11.40;96.30;;;;;;4956001;28;20574;-78
2022/04/30 18:03:23;;;;;;;10.33;8.27;;;11.30;96.30;;;;;;4955683;29;20210;-78
2022/04/30 18:05:52;;;;;;;11.30;9.03;;;11.20;96.30;;;;;;4958374;28;20261;-77
2022/04/30 18:08:18;;;;;;;14.80;9.27;;;11.00;96.30;;;;;;4939674;28;20454;-77
2022/04/30 18:10:43;;;;;;;12.00;8.60;;;10.90;96.30;;;;;;4951488;29;20500;-78
2022/04/30 18:13:09;;;;;;;10.00;9.00;;;10.60;96.30;;;;;;4924748;29;20482;-78
2022/04/30 18:15:36;;;;;;;15.20;9.37;;;10.50;96.30;;;;;;4942575;29;20630;-77
2022/04/30 18:18:03;;;;;;;10.47;8.70;;;10.40;96.30;;;;;;4957501;29;20198;-78
2022/04/30 18:20:31;;;;;;;11.60;7.80;;;10.40;96.30;;;;;;4954428;28;20427;-79
2022/04/30 18:22:57;;;;;;;11.67;8.40;;;10.30;96.30;;;;;;4954884;28;20497;-78
2022/04/30 18:25:23;;;;;;;9.90;7.17;;;10.20;96.30;;;;;;4954534;29;20435;-78
2022/04/30 18:27:48;;;;;;;15.40;9.20;;;10.10;96.30;;;;;;4938430;28;20274;-78
2022/04/30 18:30:14;;;;;;;16.63;10.83;;;10.00;96.30;;;;;;4935116;29;20176;-76
2022/04/30 18:32:39;;;;;;;14.43;9.77;;;9.90;96.30;;;;;;4941983;29;20285;-74
2022/04/30 18:35:06;;;;;;;11.63;8.40;;;9.80;96.30;;;;;;4959847;29;20543;-74
2022/04/30 18:37:31;;;;;;;122.77;84.50;;;9.80;96.30;;;;;;4938665;29;20207;-75
2022/04/30 18:39:58;;;;;;;12.07;10.50;;;9.80;96.30;;;;;;4951853;29;20950;-77
2022/04/30 18:42:24;;;;;;;17.93;9.73;;;9.70;96.30;;;;;;4953826;29;20298;-76
2022/04/30 18:44:50;;;;;;;11.87;8.33;;;9.80;96.30;;;;;;4935060;29;21043;-77
2022/04/30 18:47:16;;;;;;;13.43;9.70;;;9.70;96.30;;;;;;4934182;29;20425;-77
2022/04/30 18:49:42;;;;;;;10.83;8.17;;;9.60;96.30;;;;;;4952424;29;20274;-78
2022/04/30 18:52:08;;;;;;;13.67;8.30;;;9.50;96.30;;;;;;4952718;29;20199;-77
2022/04/30 19:02:48;;;;;;;26.53;16.60;;;9.30;96.30;;;;;;4954240;29;20496;-76
2022/04/30 19:05:15;;;;;;;43.47;29.60;;;9.70;96.30;;;;;;4936816;29;20423;-78
2022/04/30 19:07:41;;;;;;;25.83;12.60;;;9.80;96.30;;;;;;4953701;28;20170;-76
2022/04/30 19:10:07;;;;;;;15.60;13.00;;;9.80;96.30;;;;;;4953795;29;20484;-78
2022/04/30 19:12:33;;;;;;;28.30;23.60;;;10.00;96.30;;;;;;4953400;29;20230;-78
2022/04/30 19:14:58;;;;;;;16.80;12.77;;;9.90;96.30;;;;;;4952381;28;20481;-78
2022/04/30 19:17:24;;;;;;;18.07;13.70;;;9.70;96.30;;;;;;4953853;29;20211;-77
2022/04/30 19:19:50;;;;;;;13.77;11.17;;;10.00;96.30;;;;;;4953911;29;20616;-77
2022/04/30 19:22:16;;;;;;;15.97;11.77;;;10.00;96.30;;;;;;4936553;29;20738;-77
2022/04/30 19:24:42;;;;;;;18.77;12.80;;;10.10;96.30;;;;;;4953950;29;20446;-78
2022/04/30 19:27:09;;;;;;;17.27;12.67;;;10.00;96.30;;;;;;4946638;29;20266;-77
2022/04/30 19:29:35;;;;;;;30.00;18.87;;;9.90;96.30;;;;;;4936933;29;20419;-78
2022/04/30 19:32:01;;;;;;;41.13;30.00;;;9.90;96.30;;;;;;4934447;29;21057;-77
2022/04/30 19:34:26;;;;;;;44.73;27.13;;;9.90;96.30;;;;;;4934464;29;20919;-77
2022/04/30 19:36:53;;;;;;;39.33;26.80;;;9.70;96.30;;;;;;4936855;29;20423;-77
2022/04/30 19:39:19;;;;;;;27.70;21.73;;;9.50;96.30;;;;;;4936935;29;20330;-77
2022/04/30 19:41:45;;;;;;;34.70;24.20;;;9.40;96.30;;;;;;4938100;29;21024;-76
2022/04/30 19:44:11;;;;;;;25.10;17.90;;;9.30;96.30;;;;;;4938585;29;20411;-76
2022/04/30 19:46:36;;;;;;;14.00;11.63;;;9.20;96.30;;;;;;4938041;29;20437;-77
2022/04/30 19:49:02;;;;;;;14.00;11.37;;;9.20;96.30;;;;;;4938087;29;20640;-77
2022/04/30 19:51:27;;;;;;;12.87;9.53;;;9.10;96.30;;;;;;4938329;29;20605;-78
2022/04/30 19:53:53;;;;;;;23.43;15.80;;;9.00;96.30;;;;;;4938175;29;20179;-78
2022/04/30 19:56:19;;;;;;;33.90;24.63;;;9.00;96.30;;;;;;4943291;29;20179;-78
2022/04/30 19:58:45;;;;;;;28.63;15.63;;;8.90;96.30;;;;;;4947288;29;20179;-76
2022/04/30 20:01:12;;;;;;;18.30;11.40;;;8.70;96.30;;;;;;4955787;28;20277;-77
2022/04/30 20:03:38;;;;;;;17.50;12.40;;;8.70;96.30;;;;;;4957225;29;20458;-78
2022/04/30 20:06:06;;;;;;;27.23;16.60;;;8.60;96.30;;;;;;4955788;29;20437;-77
2022/04/30 20:08:32;;;;;;;19.53;13.40;;;8.60;96.30;;;;;;4956994;28;20214;-79
2022/04/30 20:19:10;;;;;;;22.97;15.00;;;8.60;96.30;;;;;;4956857;29;20413;-78
2022/04/30 20:21:36;;;;;;;15.00;13.33;;;8.50;96.30;;;;;;4951949;28;20998;-78
2022/04/30 20:24:01;;;;;;;17.20;12.93;;;8.30;96.30;;;;;;4938385;29;20419;-78
2022/04/30 20:26:27;;;;;;;22.03;17.33;;;8.10;96.30;;;;;;4945500;29;20187;-76
2022/04/30 20:28:52;;;;;;;29.67;19.37;;;8.00;96.30;;;;;;4938825;29;20829;-78
2022/04/30 20:36:47;;;;;;;22.00;15.80;;;7.70;96.30;;;;;;4958253;29;20414;-77
2022/04/30 20:39:14;;;;;;;59.37;36.30;;;7.60;96.30;;;;;;4958114;29;20407;-76
2022/04/30 20:41:41;;;;;;;23.83;16.90;;;7.70;96.30;;;;;;4956754;29;20289;-74
2022/04/30 20:44:07;;;;;;;23.13;15.47;;;7.90;96.30;;;;;;4955407;29;20430;-75
2022/04/30 20:46:34;;;;;;;21.77;16.20;;;7.90;96.30;;;;;;4929928;29;20502;-76
2022/04/30 20:48:59;;;;;;;20.70;16.03;;;7.90;96.30;;;;;;4946409;29;20407;-77
2022/04/30 20:51:30;;;;;;;20.97;15.83;;;7.70;96.30;;;;;;4957789;28;20565;-74
2022/04/30 20:54:02;;;;;;;17.00;13.30;;;7.60;96.30;;;;;;4960858;28;20167;-76
2022/04/30 20:56:28;;;;;;;18.13;14.53;;;7.50;96.30;;;;;;4942710;28;20472;-76
2022/04/30 20:58:54;;;;;;;15.90;13.47;;;7.60;96.30;;;;;;4958441;28;20502;-76
2022/04/30 21:01:19;;;;;;;22.90;16.47;;;7.70;96.30;;;;;;4954549;28;20195;-75